sensor_id;sensor_type;location;lat;lon;timestamp;P1;durP1;ratioP1;P2;durP2;ratioP2
23181;SDS011;11759;51.282;6.642;2023-03-17T00:01:32;8.00;;;3.10;;
23181;SDS011;11759;51.282;6.642;2023-03-17T00:03:59;4.32;;;2.95;;
23181;SDS011;11759;51.282;6.642;2023-03-17T00:06:27;6.70;;;3.30;;
23181;SDS011;11759;51.282;6.642;2023-03-17T00:08:55;8.98;;;3.45;;
23181;SDS011;11759;51.282;6.642;2023-03-17T00:11:23;8.13;;;3.42;;
23181;SDS011;11759;51.282;6.642;2023-03-17T00:13:49;6.50;;;3.75;;
23181;SDS011;11759;51.282;6.642;2023-03-17T00:16:18;6.30;;;3.40;;
23181;SDS011;11759;51.282;6.642;2023-03-17T00:18:47;9.98;;;3.90;;
23181;SDS011;11759;51.282;6.642;2023-03-17T00:21:16;11.18;;;3.38;;
23181;SDS011;11759;51.282;6.642;2023-03-17T00:23:48;5.55;;;3.45;;
23181;SDS011;11759;51.282;6.642;2023-03-17T00:26:17;5.22;;;3.55;;
23181;SDS011;11759;51.282;6.642;2023-03-17T00:28:45;5.82;;;3.50;;
23181;SDS011;11759;51.282;6.642;2023-03-17T00:31:13;6.28;;;3.65;;
23181;SDS011;11759;51.282;6.642;2023-03-17T00:33:42;7.05;;;4.00;;
23181;SDS011;11759;51.282;6.642;2023-03-17T00:36:12;10.15;;;3.67;;
23181;SDS011;11759;51.282;6.642;2023-03-17T00:38:42;12.00;;;3.30;;
23181;SDS011;11759;51.282;6.642;2023-03-17T00:41:09;6.45;;;3.33;;
23181;SDS011;11759;51.282;6.642;2023-03-17T00:43:36;8.80;;;3.35;;
23181;SDS011;11759;51.282;6.642;2023-03-17T00:46:17;6.78;;;3.45;;
23181;SDS011;11759;51.282;6.642;2023-03-17T00:48:47;6.88;;;3.42;;
23181;SDS011;11759;51.282;6.642;2023-03-17T00:51:14;6.50;;;2.75;;
23181;SDS011;11759;51.282;6.642;2023-03-17T00:53:41;12.10;;;3.88;;
23181;SDS011;11759;51.282;6.642;2023-03-17T00:56:12;8.20;;;3.40;;
23181;SDS011;11759;51.282;6.642;2023-03-17T00:58:40;7.85;;;3.58;;
23181;SDS011;11759;51.282;6.642;2023-03-17T01:01:07;8.80;;;3.53;;
23181;SDS011;11759;51.282;6.642;2023-03-17T01:03:34;6.35;;;3.78;;
23181;SDS011;11759;51.282;6.642;2023-03-17T01:06:02;8.82;;;3.85;;
23181;SDS011;11759;51.282;6.642;2023-03-17T01:08:30;8.40;;;3.65;;
23181;SDS011;11759;51.282;6.642;2023-03-17T01:10:57;6.63;;;3.80;;
23181;SDS011;11759;51.282;6.642;2023-03-17T01:13:24;6.50;;;3.90;;
23181;SDS011;11759;51.282;6.642;2023-03-17T01:15:52;5.60;;;3.20;;
23181;SDS011;11759;51.282;6.642;2023-03-17T01:18:22;6.93;;;3.55;;
23181;SDS011;11759;51.282;6.642;2023-03-17T01:20:49;7.63;;;3.35;;
23181;SDS011;11759;51.282;6.642;2023-03-17T01:23:17;6.60;;;3.15;;
23181;SDS011;11759;51.282;6.642;2023-03-17T01:25:43;8.73;;;2.92;;
23181;SDS011;11759;51.282;6.642;2023-03-17T01:28:15;6.20;;;3.38;;
23181;SDS011;11759;51.282;6.642;2023-03-17T01:30:44;5.68;;;3.35;;
23181;SDS011;11759;51.282;6.642;2023-03-17T01:33:12;7.55;;;3.17;;
23181;SDS011;11759;51.282;6.642;2023-03-17T01:35:40;6.63;;;3.72;;
23181;SDS011;11759;51.282;6.642;2023-03-17T01:38:08;6.45;;;3.85;;
23181;SDS011;11759;51.282;6.642;2023-03-17T01:40:43;7.03;;;3.42;;
23181;SDS011;11759;51.282;6.642;2023-03-17T01:48:42;6.85;;;3.70;;
23181;SDS011;11759;51.282;6.642;2023-03-17T01:51:12;6.88;;;3.80;;
23181;SDS011;11759;51.282;6.642;2023-03-17T01:53:44;10.68;;;4.22;;
23181;SDS011;11759;51.282;6.642;2023-03-17T01:56:13;5.38;;;3.22;;
23181;SDS011;11759;51.282;6.642;2023-03-17T01:58:40;4.50;;;3.10;;
23181;SDS011;11759;51.282;6.642;2023-03-17T02:01:07;4.72;;;3.22;;
23181;SDS011;11759;51.282;6.642;2023-03-17T02:03:33;7.63;;;3.33;;
23181;SDS011;11759;51.282;6.642;2023-03-17T02:06:00;13.57;;;3.92;;
23181;SDS011;11759;51.282;6.642;2023-03-17T02:08:27;5.05;;;3.42;;
23181;SDS011;11759;51.282;6.642;2023-03-17T02:10:54;6.53;;;3.35;;
23181;SDS011;11759;51.282;6.642;2023-03-17T02:13:22;4.53;;;3.22;;
23181;SDS011;11759;51.282;6.642;2023-03-17T02:15:51;5.55;;;3.55;;
23181;SDS011;11759;51.282;6.642;2023-03-17T02:18:20;6.13;;;3.03;;
23181;SDS011;11759;51.282;6.642;2023-03-17T02:23:15;6.20;;;3.28;;
23181;SDS011;11759;51.282;6.642;2023-03-17T02:25:44;9.43;;;3.40;;
23181;SDS011;11759;51.282;6.642;2023-03-17T02:28:18;7.30;;;3.60;;
23181;SDS011;11759;51.282;6.642;2023-03-17T02:30:47;8.02;;;3.22;;
23181;SDS011;11759;51.282;6.642;2023-03-17T02:33:16;7.30;;;3.50;;
23181;SDS011;11759;51.282;6.642;2023-03-17T02:35:44;7.63;;;3.42;;
23181;SDS011;11759;51.282;6.642;2023-03-17T02:38:14;6.25;;;3.35;;
23181;SDS011;11759;51.282;6.642;2023-03-17T02:40:41;6.82;;;3.13;;
23181;SDS011;11759;51.282;6.642;2023-03-17T02:43:07;7.28;;;2.95;;
23181;SDS011;11759;51.282;6.642;2023-03-17T02:45:34;7.90;;;2.97;;
23181;SDS011;11759;51.282;6.642;2023-03-17T02:48:02;7.50;;;3.00;;
23181;SDS011;11759;51.282;6.642;2023-03-17T02:50:29;5.07;;;3.08;;
23181;SDS011;11759;51.282;6.642;2023-03-17T02:52:57;10.32;;;3.30;;
23181;SDS011;11759;51.282;6.642;2023-03-17T02:55:23;8.63;;;3.85;;
23181;SDS011;11759;51.282;6.642;2023-03-17T02:57:51;6.35;;;3.60;;
23181;SDS011;11759;51.282;6.642;2023-03-17T03:00:18;8.80;;;3.83;;
23181;SDS011;11759;51.282;6.642;2023-03-17T03:02:45;5.93;;;3.60;;
23181;SDS011;11759;51.282;6.642;2023-03-17T03:05:12;8.05;;;3.22;;
23181;SDS011;11759;51.282;6.642;2023-03-17T03:07:38;6.55;;;3.08;;
23181;SDS011;11759;51.282;6.642;2023-03-17T03:10:05;6.53;;;3.83;;
23181;SDS011;11759;51.282;6.642;2023-03-17T03:12:32;6.82;;;3.67;;
23181;SDS011;11759;51.282;6.642;2023-03-17T03:14:58;7.80;;;3.10;;
23181;SDS011;11759;51.282;6.642;2023-03-17T03:17:26;5.55;;;3.30;;
23181;SDS011;11759;51.282;6.642;2023-03-17T03:19:53;7.28;;;3.53;;
23181;SDS011;11759;51.282;6.642;2023-03-17T03:22:19;9.95;;;3.67;;
23181;SDS011;11759;51.282;6.642;2023-03-17T03:24:46;8.60;;;3.67;;
23181;SDS011;11759;51.282;6.642;2023-03-17T03:27:12;6.03;;;4.05;;
23181;SDS011;11759;51.282;6.642;2023-03-17T03:29:39;4.85;;;3.53;;
23181;SDS011;11759;51.282;6.642;2023-03-17T03:32:07;7.50;;;3.72;;
23181;SDS011;11759;51.282;6.642;2023-03-17T03:34:33;6.10;;;3.80;;
23181;SDS011;11759;51.282;6.642;2023-03-17T03:37:00;4.65;;;3.30;;
23181;SDS011;11759;51.282;6.642;2023-03-17T03:39:27;6.20;;;3.38;;
23181;SDS011;11759;51.282;6.642;2023-03-17T03:41:53;6.55;;;3.60;;
23181;SDS011;11759;51.282;6.642;2023-03-17T03:44:23;9.75;;;3.58;;
23181;SDS011;11759;51.282;6.642;2023-03-17T03:46:50;5.43;;;3.60;;
23181;SDS011;11759;51.282;6.642;2023-03-17T03:49:17;5.78;;;3.50;;
23181;SDS011;11759;51.282;6.642;2023-03-17T03:51:43;5.15;;;3.70;;
23181;SDS011;11759;51.282;6.642;2023-03-17T03:54:10;4.57;;;2.80;;
23181;SDS011;11759;51.282;6.642;2023-03-17T03:56:36;6.32;;;3.30;;
23181;SDS011;11759;51.282;6.642;2023-03-17T03:59:03;8.05;;;3.95;;
23181;SDS011;11759;51.282;6.642;2023-03-17T04:01:30;6.53;;;3.58;;
23181;SDS011;11759;51.282;6.642;2023-03-17T04:03:56;7.78;;;3.50;;
23181;SDS011;11759;51.282;6.642;2023-03-17T04:06:23;5.10;;;3.55;;
23181;SDS011;11759;51.282;6.642;2023-03-17T04:08:49;4.65;;;3.22;;
23181;SDS011;11759;51.282;6.642;2023-03-17T04:11:16;5.57;;;3.13;;
23181;SDS011;11759;51.282;6.642;2023-03-17T04:13:43;5.15;;;3.38;;
23181;SDS011;11759;51.282;6.642;2023-03-17T04:16:10;6.82;;;3.58;;
23181;SDS011;11759;51.282;6.642;2023-03-17T04:18:36;8.68;;;4.03;;
23181;SDS011;11759;51.282;6.642;2023-03-17T04:21:03;7.60;;;3.70;;
23181;SDS011;11759;51.282;6.642;2023-03-17T04:23:30;8.85;;;3.40;;
23181;SDS011;11759;51.282;6.642;2023-03-17T04:25:57;8.82;;;3.60;;
23181;SDS011;11759;51.282;6.642;2023-03-17T04:28:24;5.63;;;3.60;;
23181;SDS011;11759;51.282;6.642;2023-03-17T04:30:51;7.43;;;3.50;;
23181;SDS011;11759;51.282;6.642;2023-03-17T04:33:17;5.85;;;3.83;;
23181;SDS011;11759;51.282;6.642;2023-03-17T04:35:45;4.93;;;3.50;;
23181;SDS011;11759;51.282;6.642;2023-03-17T04:38:11;6.75;;;4.05;;
23181;SDS011;11759;51.282;6.642;2023-03-17T04:40:38;7.47;;;4.10;;
23181;SDS011;11759;51.282;6.642;2023-03-17T04:43:05;5.90;;;3.65;;
23181;SDS011;11759;51.282;6.642;2023-03-17T04:45:32;7.15;;;3.33;;
23181;SDS011;11759;51.282;6.642;2023-03-17T04:47:58;8.93;;;3.95;;
23181;SDS011;11759;51.282;6.642;2023-03-17T04:50:25;8.82;;;3.70;;
23181;SDS011;11759;51.282;6.642;2023-03-17T04:52:51;8.63;;;4.05;;
23181;SDS011;11759;51.282;6.642;2023-03-17T04:55:18;5.57;;;3.42;;
23181;SDS011;11759;51.282;6.642;2023-03-17T04:57:46;8.45;;;4.10;;
23181;SDS011;11759;51.282;6.642;2023-03-17T05:00:12;11.65;;;3.90;;
23181;SDS011;11759;51.282;6.642;2023-03-17T05:02:40;7.47;;;3.67;;
23181;SDS011;11759;51.282;6.642;2023-03-17T05:05:07;10.02;;;3.90;;
23181;SDS011;11759;51.282;6.642;2023-03-17T05:07:33;6.45;;;3.40;;
23181;SDS011;11759;51.282;6.642;2023-03-17T05:10:00;7.60;;;3.90;;
23181;SDS011;11759;51.282;6.642;2023-03-17T05:12:27;6.70;;;3.75;;
23181;SDS011;11759;51.282;6.642;2023-03-17T05:14:54;6.80;;;3.97;;
23181;SDS011;11759;51.282;6.642;2023-03-17T05:17:20;8.38;;;3.47;;
23181;SDS011;11759;51.282;6.642;2023-03-17T05:19:47;6.13;;;3.80;;
23181;SDS011;11759;51.282;6.642;2023-03-17T05:22:13;8.02;;;3.83;;
23181;SDS011;11759;51.282;6.642;2023-03-17T05:24:40;9.25;;;4.40;;
23181;SDS011;11759;51.282;6.642;2023-03-17T05:27:07;11.10;;;4.07;;
23181;SDS011;11759;51.282;6.642;2023-03-17T05:29:34;10.65;;;3.70;;
23181;SDS011;11759;51.282;6.642;2023-03-17T05:32:00;4.55;;;3.40;;
23181;SDS011;11759;51.282;6.642;2023-03-17T05:34:27;9.07;;;4.22;;
23181;SDS011;11759;51.282;6.642;2023-03-17T05:36:53;6.78;;;3.85;;
23181;SDS011;11759;51.282;6.642;2023-03-17T05:39:20;7.18;;;3.83;;
23181;SDS011;11759;51.282;6.642;2023-03-17T05:41:47;8.07;;;4.03;;
23181;SDS011;11759;51.282;6.642;2023-03-17T05:44:13;6.43;;;4.07;;
23181;SDS011;11759;51.282;6.642;2023-03-17T05:46:41;10.07;;;4.45;;
23181;SDS011;11759;51.282;6.642;2023-03-17T05:49:08;10.10;;;4.00;;
23181;SDS011;11759;51.282;6.642;2023-03-17T05:51:35;12.43;;;4.68;;
23181;SDS011;11759;51.282;6.642;2023-03-17T05:54:02;9.30;;;4.35;;
23181;SDS011;11759;51.282;6.642;2023-03-17T05:56:29;7.65;;;4.63;;
23181;SDS011;11759;51.282;6.642;2023-03-17T05:58:59;10.18;;;4.45;;
23181;SDS011;11759;51.282;6.642;2023-03-17T06:01:27;10.52;;;4.30;;
23181;SDS011;11759;51.282;6.642;2023-03-17T06:03:54;9.40;;;4.18;;
23181;SDS011;11759;51.282;6.642;2023-03-17T06:06:21;7.47;;;3.95;;
23181;SDS011;11759;51.282;6.642;2023-03-17T06:08:47;6.57;;;4.15;;
23181;SDS011;11759;51.282;6.642;2023-03-17T06:11:14;9.35;;;4.55;;
23181;SDS011;11759;51.282;6.642;2023-03-17T06:13:40;7.97;;;4.60;;
23181;SDS011;11759;51.282;6.642;2023-03-17T06:16:08;11.25;;;4.57;;
23181;SDS011;11759;51.282;6.642;2023-03-17T06:18:35;14.73;;;5.55;;
23181;SDS011;11759;51.282;6.642;2023-03-17T06:21:01;10.35;;;4.22;;
23181;SDS011;11759;51.282;6.642;2023-03-17T06:23:28;8.05;;;4.45;;
23181;SDS011;11759;51.282;6.642;2023-03-17T06:25:54;8.20;;;4.20;;
23181;SDS011;11759;51.282;6.642;2023-03-17T06:28:21;10.65;;;4.47;;
23181;SDS011;11759;51.282;6.642;2023-03-17T06:30:48;9.30;;;4.03;;
23181;SDS011;11759;51.282;6.642;2023-03-17T06:33:14;8.93;;;4.07;;
23181;SDS011;11759;51.282;6.642;2023-03-17T06:35:43;6.95;;;4.13;;
23181;SDS011;11759;51.282;6.642;2023-03-17T06:38:10;6.60;;;4.25;;
23181;SDS011;11759;51.282;6.642;2023-03-17T06:40:36;6.50;;;4.07;;
23181;SDS011;11759;51.282;6.642;2023-03-17T06:43:03;10.57;;;4.57;;
23181;SDS011;11759;51.282;6.642;2023-03-17T06:45:30;6.30;;;3.75;;
23181;SDS011;11759;51.282;6.642;2023-03-17T06:47:58;7.13;;;4.32;;
23181;SDS011;11759;51.282;6.642;2023-03-17T06:50:25;9.15;;;4.20;;
23181;SDS011;11759;51.282;6.642;2023-03-17T06:52:52;10.27;;;4.20;;
23181;SDS011;11759;51.282;6.642;2023-03-17T06:55:18;6.80;;;4.07;;
23181;SDS011;11759;51.282;6.642;2023-03-17T06:57:46;7.28;;;4.38;;
23181;SDS011;11759;51.282;6.642;2023-03-17T07:00:16;10.07;;;4.18;;
23181;SDS011;11759;51.282;6.642;2023-03-17T07:02:43;11.50;;;4.30;;
23181;SDS011;11759;51.282;6.642;2023-03-17T07:05:10;11.35;;;4.40;;
23181;SDS011;11759;51.282;6.642;2023-03-17T07:07:39;8.55;;;3.85;;
23181;SDS011;11759;51.282;6.642;2023-03-17T07:10:06;11.07;;;4.18;;
23181;SDS011;11759;51.282;6.642;2023-03-17T07:12:35;10.10;;;4.00;;
23181;SDS011;11759;51.282;6.642;2023-03-17T07:15:02;9.70;;;4.00;;
23181;SDS011;11759;51.282;6.642;2023-03-17T07:17:29;7.63;;;4.03;;
23181;SDS011;11759;51.282;6.642;2023-03-17T07:19:56;5.72;;;3.40;;
23181;SDS011;11759;51.282;6.642;2023-03-17T07:22:22;9.98;;;3.85;;
23181;SDS011;11759;51.282;6.642;2023-03-17T07:24:49;8.30;;;3.42;;
23181;SDS011;11759;51.282;6.642;2023-03-17T07:27:17;8.60;;;3.90;;
23181;SDS011;11759;51.282;6.642;2023-03-17T07:29:48;6.65;;;4.00;;
23181;SDS011;11759;51.282;6.642;2023-03-17T07:32:14;11.80;;;4.20;;
23181;SDS011;11759;51.282;6.642;2023-03-17T07:34:41;8.27;;;4.00;;
23181;SDS011;11759;51.282;6.642;2023-03-17T07:37:08;9.43;;;4.10;;
23181;SDS011;11759;51.282;6.642;2023-03-17T07:39:35;9.88;;;4.28;;
23181;SDS011;11759;51.282;6.642;2023-03-17T07:42:02;7.50;;;3.97;;
23181;SDS011;11759;51.282;6.642;2023-03-17T07:44:28;8.73;;;3.40;;
23181;SDS011;11759;51.282;6.642;2023-03-17T07:46:55;10.05;;;3.70;;
23181;SDS011;11759;51.282;6.642;2023-03-17T07:49:22;9.40;;;4.03;;
23181;SDS011;11759;51.282;6.642;2023-03-17T07:52:07;6.85;;;4.10;;
23181;SDS011;11759;51.282;6.642;2023-03-17T07:54:34;6.82;;;3.50;;
23181;SDS011;11759;51.282;6.642;2023-03-17T07:57:02;9.55;;;4.90;;
23181;SDS011;11759;51.282;6.642;2023-03-17T07:59:29;9.38;;;4.18;;
23181;SDS011;11759;51.282;6.642;2023-03-17T08:01:56;7.80;;;3.80;;
23181;SDS011;11759;51.282;6.642;2023-03-17T08:04:24;7.47;;;3.58;;
23181;SDS011;11759;51.282;6.642;2023-03-17T08:06:52;6.97;;;3.88;;
23181;SDS011;11759;51.282;6.642;2023-03-17T08:09:19;7.65;;;3.80;;
23181;SDS011;11759;51.282;6.642;2023-03-17T08:11:47;9.35;;;3.85;;
23181;SDS011;11759;51.282;6.642;2023-03-17T08:14:14;13.18;;;3.47;;
23181;SDS011;11759;51.282;6.642;2023-03-17T08:16:40;9.25;;;3.53;;
23181;SDS011;11759;51.282;6.642;2023-03-17T08:19:08;9.85;;;3.85;;
23181;SDS011;11759;51.282;6.642;2023-03-17T08:21:35;6.55;;;3.38;;
23181;SDS011;11759;51.282;6.642;2023-03-17T08:24:02;8.35;;;4.13;;
23181;SDS011;11759;51.282;6.642;2023-03-17T08:26:30;7.82;;;4.45;;
23181;SDS011;11759;51.282;6.642;2023-03-17T08:28:57;10.25;;;4.50;;
23181;SDS011;11759;51.282;6.642;2023-03-17T08:31:24;8.70;;;4.30;;
23181;SDS011;11759;51.282;6.642;2023-03-17T08:33:51;5.72;;;3.55;;
23181;SDS011;11759;51.282;6.642;2023-03-17T08:36:19;8.38;;;3.72;;
23181;SDS011;11759;51.282;6.642;2023-03-17T08:38:46;7.70;;;3.75;;
23181;SDS011;11759;51.282;6.642;2023-03-17T08:41:15;8.90;;;3.85;;
23181;SDS011;11759;51.282;6.642;2023-03-17T08:43:44;13.35;;;3.75;;
23181;SDS011;11759;51.282;6.642;2023-03-17T08:46:19;10.10;;;3.78;;
23181;SDS011;11759;51.282;6.642;2023-03-17T08:48:53;12.00;;;4.20;;
23181;SDS011;11759;51.282;6.642;2023-03-17T08:51:23;11.45;;;3.85;;
23181;SDS011;11759;51.282;6.642;2023-03-17T08:53:50;7.25;;;3.60;;
23181;SDS011;11759;51.282;6.642;2023-03-17T08:56:18;6.32;;;3.92;;
23181;SDS011;11759;51.282;6.642;2023-03-17T08:58:45;11.57;;;4.15;;
23181;SDS011;11759;51.282;6.642;2023-03-17T09:01:12;10.30;;;3.25;;
23181;SDS011;11759;51.282;6.642;2023-03-17T09:03:40;9.45;;;4.13;;
23181;SDS011;11759;51.282;6.642;2023-03-17T09:06:07;8.40;;;3.95;;
23181;SDS011;11759;51.282;6.642;2023-03-17T09:08:37;9.80;;;3.33;;
23181;SDS011;11759;51.282;6.642;2023-03-17T09:11:05;11.32;;;3.58;;
23181;SDS011;11759;51.282;6.642;2023-03-17T09:13:33;9.35;;;3.45;;
23181;SDS011;11759;51.282;6.642;2023-03-17T09:16:00;11.48;;;4.20;;
23181;SDS011;11759;51.282;6.642;2023-03-17T09:18:27;4.85;;;2.83;;
23181;SDS011;11759;51.282;6.642;2023-03-17T09:20:56;10.52;;;3.17;;
23181;SDS011;11759;51.282;6.642;2023-03-17T09:23:23;8.90;;;3.88;;
23181;SDS011;11759;51.282;6.642;2023-03-17T09:25:50;8.80;;;3.75;;
23181;SDS011;11759;51.282;6.642;2023-03-17T09:28:18;7.43;;;3.53;;
23181;SDS011;11759;51.282;6.642;2023-03-17T09:30:44;10.73;;;3.60;;
23181;SDS011;11759;51.282;6.642;2023-03-17T09:33:11;12.27;;;3.90;;
23181;SDS011;11759;51.282;6.642;2023-03-17T09:35:39;6.30;;;3.08;;
23181;SDS011;11759;51.282;6.642;2023-03-17T09:38:06;11.35;;;3.30;;
23181;SDS011;11759;51.282;6.642;2023-03-17T09:43:35;8.52;;;3.33;;
23181;SDS011;11759;51.282;6.642;2023-03-17T09:46:52;8.32;;;3.40;;
23181;SDS011;11759;51.282;6.642;2023-03-17T09:49:01;8.00;;;3.22;;
23181;SDS011;11759;51.282;6.642;2023-03-17T09:51:32;6.22;;;3.15;;
23181;SDS011;11759;51.282;6.642;2023-03-17T09:54:01;11.38;;;3.53;;
23181;SDS011;11759;51.282;6.642;2023-03-17T09:56:31;9.25;;;3.53;;
23181;SDS011;11759;51.282;6.642;2023-03-17T09:58:59;9.80;;;3.25;;
23181;SDS011;11759;51.282;6.642;2023-03-17T10:01:29;7.57;;;3.53;;
23181;SDS011;11759;51.282;6.642;2023-03-17T10:03:56;11.88;;;3.50;;
23181;SDS011;11759;51.282;6.642;2023-03-17T10:12:02;5.95;;;3.05;;
23181;SDS011;11759;51.282;6.642;2023-03-17T10:22:29;8.13;;;3.30;;
23181;SDS011;11759;51.282;6.642;2023-03-17T10:25:03;7.65;;;3.33;;
23181;SDS011;11759;51.282;6.642;2023-03-17T10:27:33;7.40;;;3.33;;
23181;SDS011;11759;51.282;6.642;2023-03-17T10:30:02;6.65;;;3.20;;
23181;SDS011;11759;51.282;6.642;2023-03-17T10:32:40;15.45;;;3.58;;
23181;SDS011;11759;51.282;6.642;2023-03-17T10:35:07;8.93;;;3.90;;
23181;SDS011;11759;51.282;6.642;2023-03-17T10:37:36;9.80;;;3.30;;
23181;SDS011;11759;51.282;6.642;2023-03-17T10:40:04;8.13;;;3.10;;
23181;SDS011;11759;51.282;6.642;2023-03-17T10:42:44;7.07;;;3.30;;
23181;SDS011;11759;51.282;6.642;2023-03-17T10:45:31;8.10;;;2.92;;
23181;SDS011;11759;51.282;6.642;2023-03-17T10:48:00;5.72;;;3.22;;
23181;SDS011;11759;51.282;6.642;2023-03-17T10:50:29;9.95;;;3.45;;
23181;SDS011;11759;51.282;6.642;2023-03-17T10:55:27;5.38;;;2.67;;
23181;SDS011;11759;51.282;6.642;2023-03-17T10:58:02;9.50;;;3.30;;
23181;SDS011;11759;51.282;6.642;2023-03-17T11:00:32;8.70;;;2.97;;
23181;SDS011;11759;51.282;6.642;2023-03-17T11:03:12;6.43;;;2.80;;
23181;SDS011;11759;51.282;6.642;2023-03-17T11:05:43;10.25;;;2.83;;
23181;SDS011;11759;51.282;6.642;2023-03-17T11:08:20;10.32;;;3.92;;
23181;SDS011;11759;51.282;6.642;2023-03-17T11:10:47;6.40;;;3.25;;
23181;SDS011;11759;51.282;6.642;2023-03-17T11:13:19;6.75;;;3.00;;
23181;SDS011;11759;51.282;6.642;2023-03-17T11:15:51;8.40;;;2.97;;
23181;SDS011;11759;51.282;6.642;2023-03-17T11:18:19;10.32;;;3.30;;
23181;SDS011;11759;51.282;6.642;2023-03-17T11:21:00;10.25;;;3.35;;
23181;SDS011;11759;51.282;6.642;2023-03-17T11:31:38;8.27;;;2.22;;
23181;SDS011;11759;51.282;6.642;2023-03-17T11:34:11;8.88;;;2.80;;
23181;SDS011;11759;51.282;6.642;2023-03-17T11:39:25;5.43;;;2.67;;
23181;SDS011;11759;51.282;6.642;2023-03-17T11:47:30;13.98;;;3.15;;
23181;SDS011;11759;51.282;6.642;2023-03-17T11:50:10;7.05;;;2.50;;
23181;SDS011;11759;51.282;6.642;2023-03-17T11:52:58;6.13;;;2.53;;
23181;SDS011;11759;51.282;6.642;2023-03-17T11:55:40;8.02;;;2.70;;
23181;SDS011;11759;51.282;6.642;2023-03-17T11:58:54;8.27;;;2.28;;
23181;SDS011;11759;51.282;6.642;2023-03-17T12:01:01;6.07;;;2.33;;
23181;SDS011;11759;51.282;6.642;2023-03-17T12:06:27;8.50;;;2.45;;
23181;SDS011;11759;51.282;6.642;2023-03-17T12:08:57;5.47;;;2.35;;
23181;SDS011;11759;51.282;6.642;2023-03-17T12:11:34;7.32;;;2.40;;
23181;SDS011;11759;51.282;6.642;2023-03-17T12:14:04;11.18;;;2.30;;
23181;SDS011;11759;51.282;6.642;2023-03-17T12:19:12;9.40;;;2.42;;
23181;SDS011;11759;51.282;6.642;2023-03-17T12:24:21;5.90;;;2.25;;
23181;SDS011;11759;51.282;6.642;2023-03-17T12:26:55;6.20;;;2.15;;
23181;SDS011;11759;51.282;6.642;2023-03-17T12:29:34;5.68;;;2.63;;
23181;SDS011;11759;51.282;6.642;2023-03-17T12:32:17;13.45;;;2.80;;
23181;SDS011;11759;51.282;6.642;2023-03-17T12:34:51;8.68;;;2.53;;
23181;SDS011;11759;51.282;6.642;2023-03-17T12:37:22;6.70;;;2.53;;
23181;SDS011;11759;51.282;6.642;2023-03-17T12:39:56;7.15;;;2.55;;
23181;SDS011;11759;51.282;6.642;2023-03-17T12:42:37;6.15;;;2.60;;
23181;SDS011;11759;51.282;6.642;2023-03-17T12:48:22;8.55;;;2.80;;
23181;SDS011;11759;51.282;6.642;2023-03-17T12:53:46;5.68;;;2.30;;
23181;SDS011;11759;51.282;6.642;2023-03-17T12:56:20;5.38;;;2.25;;
23181;SDS011;11759;51.282;6.642;2023-03-17T12:58:50;8.82;;;2.75;;
23181;SDS011;11759;51.282;6.642;2023-03-17T13:04:02;11.10;;;2.38;;
23181;SDS011;11759;51.282;6.642;2023-03-17T13:06:37;9.45;;;2.53;;
23181;SDS011;11759;51.282;6.642;2023-03-17T13:12:01;8.02;;;2.50;;
23181;SDS011;11759;51.282;6.642;2023-03-17T13:19:54;9.13;;;2.67;;
23181;SDS011;11759;51.282;6.642;2023-03-17T13:22:22;7.03;;;2.00;;
23181;SDS011;11759;51.282;6.642;2023-03-17T13:24:58;5.45;;;2.15;;
23181;SDS011;11759;51.282;6.642;2023-03-17T13:27:44;7.30;;;2.10;;
23181;SDS011;11759;51.282;6.642;2023-03-17T13:32:55;5.43;;;2.40;;
23181;SDS011;11759;51.282;6.642;2023-03-17T13:35:38;10.07;;;2.30;;
23181;SDS011;11759;51.282;6.642;2023-03-17T13:40:57;7.50;;;2.25;;
23181;SDS011;11759;51.282;6.642;2023-03-17T13:43:44;7.85;;;2.25;;
23181;SDS011;11759;51.282;6.642;2023-03-17T13:48:47;5.43;;;2.20;;
23181;SDS011;11759;51.282;6.642;2023-03-17T13:51:16;9.38;;;2.30;;
23181;SDS011;11759;51.282;6.642;2023-03-17T14:01:40;5.20;;;2.22;;
23181;SDS011;11759;51.282;6.642;2023-03-17T14:04:26;6.85;;;2.40;;
23181;SDS011;11759;51.282;6.642;2023-03-17T14:06:57;7.20;;;2.28;;
23181;SDS011;11759;51.282;6.642;2023-03-17T14:09:38;5.72;;;1.90;;
23181;SDS011;11759;51.282;6.642;2023-03-17T14:14:41;4.50;;;2.20;;
23181;SDS011;11759;51.282;6.642;2023-03-17T14:17:19;5.90;;;2.13;;
23181;SDS011;11759;51.282;6.642;2023-03-17T14:19:59;5.32;;;2.20;;
23181;SDS011;11759;51.282;6.642;2023-03-17T14:22:45;6.32;;;1.80;;
23181;SDS011;11759;51.282;6.642;2023-03-17T14:25:14;4.65;;;2.08;;
23181;SDS011;11759;51.282;6.642;2023-03-17T14:27:43;11.50;;;2.20;;
23181;SDS011;11759;51.282;6.642;2023-03-17T14:30:15;6.47;;;1.90;;
23181;SDS011;11759;51.282;6.642;2023-03-17T14:32:47;2.03;;;1.35;;
23181;SDS011;11759;51.282;6.642;2023-03-17T14:35:16;3.55;;;1.92;;
23181;SDS011;11759;51.282;6.642;2023-03-17T14:37:43;7.05;;;1.70;;
23181;SDS011;11759;51.282;6.642;2023-03-17T14:40:17;10.45;;;2.08;;
23181;SDS011;11759;51.282;6.642;2023-03-17T14:42:45;7.43;;;1.90;;
23181;SDS011;11759;51.282;6.642;2023-03-17T14:45:46;5.00;;;2.15;;
23181;SDS011;11759;51.282;6.642;2023-03-17T14:48:16;6.63;;;2.00;;
23181;SDS011;11759;51.282;6.642;2023-03-17T14:50:59;3.85;;;1.95;;
23181;SDS011;11759;51.282;6.642;2023-03-17T14:53:34;6.63;;;2.17;;
23181;SDS011;11759;51.282;6.642;2023-03-17T14:56:04;6.65;;;2.15;;
23181;SDS011;11759;51.282;6.642;2023-03-17T14:58:41;4.25;;;2.05;;
23181;SDS011;11759;51.282;6.642;2023-03-17T15:01:43;11.40;;;2.55;;
23181;SDS011;11759;51.282;6.642;2023-03-17T15:04:09;12.52;;;2.33;;
23181;SDS011;11759;51.282;6.642;2023-03-17T15:09:57;4.97;;;2.00;;
23181;SDS011;11759;51.282;6.642;2023-03-17T15:12:28;3.88;;;1.73;;
23181;SDS011;11759;51.282;6.642;2023-03-17T15:14:59;4.28;;;2.13;;
23181;SDS011;11759;51.282;6.642;2023-03-17T15:17:32;12.27;;;2.53;;
23181;SDS011;11759;51.282;6.642;2023-03-17T15:27:29;8.30;;;1.80;;
23181;SDS011;11759;51.282;6.642;2023-03-17T15:29:57;4.43;;;2.00;;
23181;SDS011;11759;51.282;6.642;2023-03-17T15:32:24;3.67;;;1.95;;
23181;SDS011;11759;51.282;6.642;2023-03-17T15:34:53;6.57;;;1.92;;
23181;SDS011;11759;51.282;6.642;2023-03-17T15:37:26;3.63;;;1.90;;
23181;SDS011;11759;51.282;6.642;2023-03-17T15:39:54;7.13;;;1.88;;
23181;SDS011;11759;51.282;6.642;2023-03-17T15:42:22;4.50;;;1.70;;
23181;SDS011;11759;51.282;6.642;2023-03-17T15:44:50;6.82;;;2.38;;
23181;SDS011;11759;51.282;6.642;2023-03-17T15:47:18;7.47;;;2.22;;
23181;SDS011;11759;51.282;6.642;2023-03-17T15:49:46;5.63;;;2.10;;
23181;SDS011;11759;51.282;6.642;2023-03-17T15:54:43;12.43;;;2.33;;
23181;SDS011;11759;51.282;6.642;2023-03-17T15:57:10;6.47;;;2.25;;
23181;SDS011;11759;51.282;6.642;2023-03-17T15:59:38;6.22;;;1.98;;
23181;SDS011;11759;51.282;6.642;2023-03-17T16:04:52;4.10;;;1.80;;
23181;SDS011;11759;51.282;6.642;2023-03-17T16:07:20;6.38;;;1.73;;
23181;SDS011;11759;51.282;6.642;2023-03-17T16:09:47;7.70;;;1.83;;
23181;SDS011;11759;51.282;6.642;2023-03-17T16:12:14;8.60;;;2.20;;
23181;SDS011;11759;51.282;6.642;2023-03-17T16:14:41;6.82;;;1.92;;
23181;SDS011;11759;51.282;6.642;2023-03-17T16:17:14;7.13;;;1.95;;
23181;SDS011;11759;51.282;6.642;2023-03-17T16:19:46;5.82;;;1.65;;
23181;SDS011;11759;51.282;6.642;2023-03-17T16:24:59;6.43;;;2.00;;
23181;SDS011;11759;51.282;6.642;2023-03-17T16:27:26;5.88;;;2.42;;
23181;SDS011;11759;51.282;6.642;2023-03-17T16:29:53;6.20;;;2.20;;
23181;SDS011;11759;51.282;6.642;2023-03-17T16:32:19;3.72;;;2.03;;
23181;SDS011;11759;51.282;6.642;2023-03-17T16:34:46;8.75;;;2.00;;
23181;SDS011;11759;51.282;6.642;2023-03-17T16:37:16;9.43;;;1.70;;
23181;SDS011;11759;51.282;6.642;2023-03-17T16:39:42;7.05;;;2.70;;
23181;SDS011;11759;51.282;6.642;2023-03-17T16:42:20;5.53;;;1.90;;
23181;SDS011;11759;51.282;6.642;2023-03-17T16:44:47;3.38;;;1.88;;